sensor_id;sensor_type;location;lat;lon;timestamp;P1;durP1;ratioP1;P2;durP2;ratioP2
7128;SDS011;3606;52.930;8.644;2022-10-31T00:03:44;34.20;;;21.47;;
7128;SDS011;3606;52.930;8.644;2022-10-31T00:06:10;34.20;;;21.07;;
7128;SDS011;3606;52.930;8.644;2022-10-31T00:08:36;32.40;;;21.23;;
7128;SDS011;3606;52.930;8.644;2022-10-31T00:11:02;35.93;;;20.30;;
7128;SDS011;3606;52.930;8.644;2022-10-31T00:13:28;35.77;;;20.90;;
7128;SDS011;3606;52.930;8.644;2022-10-31T00:15:53;35.73;;;21.50;;
7128;SDS011;3606;52.930;8.644;2022-10-31T00:18:19;41.87;;;23.50;;
7128;SDS011;3606;52.930;8.644;2022-10-31T00:20:44;41.10;;;23.43;;
7128;SDS011;3606;52.930;8.644;2022-10-31T00:23:10;41.87;;;22.80;;
7128;SDS011;3606;52.930;8.644;2022-10-31T00:25:37;37.10;;;24.10;;
7128;SDS011;3606;52.930;8.644;2022-10-31T00:28:04;36.93;;;22.43;;
7128;SDS011;3606;52.930;8.644;2022-10-31T00:30:31;35.23;;;22.23;;
7128;SDS011;3606;52.930;8.644;2022-10-31T00:32:57;41.30;;;22.10;;
7128;SDS011;3606;52.930;8.644;2022-10-31T00:35:22;38.73;;;23.23;;
7128;SDS011;3606;52.930;8.644;2022-10-31T00:37:48;44.93;;;24.93;;
7128;SDS011;3606;52.930;8.644;2022-10-31T00:40:14;39.57;;;24.30;;
7128;SDS011;3606;52.930;8.644;2022-10-31T00:42:40;49.83;;;26.33;;
7128;SDS011;3606;52.930;8.644;2022-10-31T00:45:07;47.13;;;26.17;;
7128;SDS011;3606;52.930;8.644;2022-10-31T00:47:34;46.27;;;26.50;;
7128;SDS011;3606;52.930;8.644;2022-10-31T00:49:59;49.40;;;27.43;;
7128;SDS011;3606;52.930;8.644;2022-10-31T00:52:25;49.67;;;26.67;;
7128;SDS011;3606;52.930;8.644;2022-10-31T00:54:50;42.40;;;25.27;;
7128;SDS011;3606;52.930;8.644;2022-10-31T00:57:16;42.97;;;25.23;;
7128;SDS011;3606;52.930;8.644;2022-10-31T00:59:41;43.80;;;25.93;;
7128;SDS011;3606;52.930;8.644;2022-10-31T01:02:07;45.87;;;24.30;;
7128;SDS011;3606;52.930;8.644;2022-10-31T01:04:33;41.13;;;24.17;;
7128;SDS011;3606;52.930;8.644;2022-10-31T01:06:58;43.03;;;25.67;;
7128;SDS011;3606;52.930;8.644;2022-10-31T01:09:24;42.70;;;24.50;;
7128;SDS011;3606;52.930;8.644;2022-10-31T01:11:49;45.83;;;24.93;;
7128;SDS011;3606;52.930;8.644;2022-10-31T01:14:15;40.47;;;23.83;;
7128;SDS011;3606;52.930;8.644;2022-10-31T01:16:40;46.97;;;25.57;;
7128;SDS011;3606;52.930;8.644;2022-10-31T01:19:06;51.00;;;27.23;;
7128;SDS011;3606;52.930;8.644;2022-10-31T01:21:32;43.10;;;25.60;;
7128;SDS011;3606;52.930;8.644;2022-10-31T01:23:57;54.50;;;28.53;;
7128;SDS011;3606;52.930;8.644;2022-10-31T01:26:24;45.63;;;25.47;;
7128;SDS011;3606;52.930;8.644;2022-10-31T01:28:59;43.37;;;25.83;;
7128;SDS011;3606;52.930;8.644;2022-10-31T01:31:28;42.07;;;25.13;;
7128;SDS011;3606;52.930;8.644;2022-10-31T01:33:58;44.60;;;23.97;;
7128;SDS011;3606;52.930;8.644;2022-10-31T01:38:53;45.70;;;25.77;;
7128;SDS011;3606;52.930;8.644;2022-10-31T01:41:21;51.33;;;27.17;;
7128;SDS011;3606;52.930;8.644;2022-10-31T01:43:54;51.17;;;26.53;;
7128;SDS011;3606;52.930;8.644;2022-10-31T01:48:49;44.40;;;25.70;;
7128;SDS011;3606;52.930;8.644;2022-10-31T01:51:17;46.63;;;26.47;;
7128;SDS011;3606;52.930;8.644;2022-10-31T01:53:45;49.93;;;28.03;;
7128;SDS011;3606;52.930;8.644;2022-10-31T01:56:12;44.10;;;24.97;;
7128;SDS011;3606;52.930;8.644;2022-10-31T01:58:40;42.83;;;24.83;;
7128;SDS011;3606;52.930;8.644;2022-10-31T02:01:06;47.23;;;25.60;;
7128;SDS011;3606;52.930;8.644;2022-10-31T02:03:32;46.67;;;25.73;;
7128;SDS011;3606;52.930;8.644;2022-10-31T02:05:58;42.73;;;24.93;;
7128;SDS011;3606;52.930;8.644;2022-10-31T02:08:28;50.17;;;25.57;;
7128;SDS011;3606;52.930;8.644;2022-10-31T02:10:56;43.10;;;25.37;;
7128;SDS011;3606;52.930;8.644;2022-10-31T02:13:23;48.30;;;25.30;;
7128;SDS011;3606;52.930;8.644;2022-10-31T02:15:51;42.40;;;24.00;;
7128;SDS011;3606;52.930;8.644;2022-10-31T02:18:18;43.93;;;24.60;;
7128;SDS011;3606;52.930;8.644;2022-10-31T02:20:48;47.20;;;26.37;;
7128;SDS011;3606;52.930;8.644;2022-10-31T02:26:22;40.07;;;25.40;;
7128;SDS011;3606;52.930;8.644;2022-10-31T02:34:33;44.97;;;25.60;;
7128;SDS011;3606;52.930;8.644;2022-10-31T02:37:13;35.33;;;22.80;;
7128;SDS011;3606;52.930;8.644;2022-10-31T02:39:51;39.37;;;23.20;;
7128;SDS011;3606;52.930;8.644;2022-10-31T02:42:45;43.50;;;23.87;;
7128;SDS011;3606;52.930;8.644;2022-10-31T02:45:21;35.07;;;22.63;;
7128;SDS011;3606;52.930;8.644;2022-10-31T02:48:10;38.77;;;21.90;;
7128;SDS011;3606;52.930;8.644;2022-10-31T02:50:40;43.27;;;24.80;;
7128;SDS011;3606;52.930;8.644;2022-10-31T02:53:08;35.33;;;23.63;;
7128;SDS011;3606;52.930;8.644;2022-10-31T02:58:05;40.40;;;24.27;;
7128;SDS011;3606;52.930;8.644;2022-10-31T03:06:09;40.73;;;23.73;;
7128;SDS011;3606;52.930;8.644;2022-10-31T03:09:03;34.17;;;22.73;;
7128;SDS011;3606;52.930;8.644;2022-10-31T03:11:53;45.83;;;25.53;;
7128;SDS011;3606;52.930;8.644;2022-10-31T03:14:42;46.83;;;26.17;;
7128;SDS011;3606;52.930;8.644;2022-10-31T03:17:27;42.13;;;23.40;;
7128;SDS011;3606;52.930;8.644;2022-10-31T03:20:01;41.77;;;24.73;;
7128;SDS011;3606;52.930;8.644;2022-10-31T03:22:31;40.53;;;24.23;;
7128;SDS011;3606;52.930;8.644;2022-10-31T03:24:58;49.30;;;24.50;;
7128;SDS011;3606;52.930;8.644;2022-10-31T03:27:26;34.17;;;21.67;;
7128;SDS011;3606;52.930;8.644;2022-10-31T03:29:56;32.63;;;20.47;;
7128;SDS011;3606;52.930;8.644;2022-10-31T03:32:30;36.77;;;22.03;;
7128;SDS011;3606;52.930;8.644;2022-10-31T03:35:00;49.23;;;23.27;;
7128;SDS011;3606;52.930;8.644;2022-10-31T03:37:29;38.33;;;22.53;;
7128;SDS011;3606;52.930;8.644;2022-10-31T03:39:57;35.40;;;21.90;;
7128;SDS011;3606;52.930;8.644;2022-10-31T03:42:25;35.70;;;20.83;;
7128;SDS011;3606;52.930;8.644;2022-10-31T03:45:06;35.57;;;20.93;;
7128;SDS011;3606;52.930;8.644;2022-10-31T03:47:37;34.77;;;21.63;;
7128;SDS011;3606;52.930;8.644;2022-10-31T03:50:05;36.30;;;21.67;;
7128;SDS011;3606;52.930;8.644;2022-10-31T03:52:37;39.50;;;23.27;;
7128;SDS011;3606;52.930;8.644;2022-10-31T03:55:38;46.33;;;23.43;;
7128;SDS011;3606;52.930;8.644;2022-10-31T03:58:07;39.13;;;22.87;;
7128;SDS011;3606;52.930;8.644;2022-10-31T04:00:41;45.00;;;23.63;;
7128;SDS011;3606;52.930;8.644;2022-10-31T04:03:10;41.57;;;25.10;;
7128;SDS011;3606;52.930;8.644;2022-10-31T04:05:42;41.70;;;24.30;;
7128;SDS011;3606;52.930;8.644;2022-10-31T04:08:11;38.13;;;24.47;;
7128;SDS011;3606;52.930;8.644;2022-10-31T04:10:41;36.60;;;24.37;;
7128;SDS011;3606;52.930;8.644;2022-10-31T04:13:10;35.00;;;23.70;;
7128;SDS011;3606;52.930;8.644;2022-10-31T04:15:39;35.03;;;22.67;;
7128;SDS011;3606;52.930;8.644;2022-10-31T04:18:06;33.73;;;23.43;;
7128;SDS011;3606;52.930;8.644;2022-10-31T04:20:35;34.07;;;23.67;;
7128;SDS011;3606;52.930;8.644;2022-10-31T04:23:02;36.73;;;23.50;;
7128;SDS011;3606;52.930;8.644;2022-10-31T04:25:29;30.40;;;20.97;;
7128;SDS011;3606;52.930;8.644;2022-10-31T04:27:55;34.23;;;21.87;;
7128;SDS011;3606;52.930;8.644;2022-10-31T04:30:21;59.30;;;24.33;;
7128;SDS011;3606;52.930;8.644;2022-10-31T04:32:46;32.97;;;20.43;;
7128;SDS011;3606;52.930;8.644;2022-10-31T04:35:12;32.00;;;19.83;;
7128;SDS011;3606;52.930;8.644;2022-10-31T04:37:38;58.20;;;23.07;;
7128;SDS011;3606;52.930;8.644;2022-10-31T04:40:04;30.67;;;21.47;;
7128;SDS011;3606;52.930;8.644;2022-10-31T04:42:30;37.27;;;23.17;;
7128;SDS011;3606;52.930;8.644;2022-10-31T04:44:55;36.33;;;22.80;;
7128;SDS011;3606;52.930;8.644;2022-10-31T04:47:21;37.33;;;24.67;;
7128;SDS011;3606;52.930;8.644;2022-10-31T04:49:47;42.80;;;23.10;;
7128;SDS011;3606;52.930;8.644;2022-10-31T04:52:12;37.30;;;22.90;;
7128;SDS011;3606;52.930;8.644;2022-10-31T04:54:38;37.83;;;24.07;;
7128;SDS011;3606;52.930;8.644;2022-10-31T04:57:04;35.90;;;22.23;;
7128;SDS011;3606;52.930;8.644;2022-10-31T04:59:29;39.20;;;23.17;;
7128;SDS011;3606;52.930;8.644;2022-10-31T05:01:55;35.67;;;23.27;;
7128;SDS011;3606;52.930;8.644;2022-10-31T05:04:20;34.43;;;22.17;;
7128;SDS011;3606;52.930;8.644;2022-10-31T05:06:46;37.73;;;22.83;;
7128;SDS011;3606;52.930;8.644;2022-10-31T05:09:11;35.40;;;21.10;;
7128;SDS011;3606;52.930;8.644;2022-10-31T05:11:37;69.23;;;24.47;;
7128;SDS011;3606;52.930;8.644;2022-10-31T05:14:03;123.77;;;28.63;;
7128;SDS011;3606;52.930;8.644;2022-10-31T05:16:28;115.23;;;27.57;;
7128;SDS011;3606;52.930;8.644;2022-10-31T05:18:54;55.50;;;23.27;;
7128;SDS011;3606;52.930;8.644;2022-10-31T05:21:19;33.97;;;21.73;;
7128;SDS011;3606;52.930;8.644;2022-10-31T05:23:45;35.27;;;23.87;;
7128;SDS011;3606;52.930;8.644;2022-10-31T05:26:10;33.70;;;23.03;;
7128;SDS011;3606;52.930;8.644;2022-10-31T05:28:36;42.07;;;23.13;;
7128;SDS011;3606;52.930;8.644;2022-10-31T05:31:02;37.33;;;22.80;;
7128;SDS011;3606;52.930;8.644;2022-10-31T05:33:27;41.83;;;24.23;;
7128;SDS011;3606;52.930;8.644;2022-10-31T05:35:53;37.77;;;22.13;;
7128;SDS011;3606;52.930;8.644;2022-10-31T05:38:18;42.67;;;25.00;;
7128;SDS011;3606;52.930;8.644;2022-10-31T05:40:44;45.47;;;26.37;;
7128;SDS011;3606;52.930;8.644;2022-10-31T05:43:10;40.23;;;26.50;;
7128;SDS011;3606;52.930;8.644;2022-10-31T05:45:35;42.60;;;24.67;;
7128;SDS011;3606;52.930;8.644;2022-10-31T05:48:01;39.33;;;24.10;;
7128;SDS011;3606;52.930;8.644;2022-10-31T05:50:28;33.57;;;22.47;;
7128;SDS011;3606;52.930;8.644;2022-10-31T05:52:59;38.93;;;22.73;;
7128;SDS011;3606;52.930;8.644;2022-10-31T05:55:26;34.33;;;22.07;;
7128;SDS011;3606;52.930;8.644;2022-10-31T05:57:53;37.43;;;22.30;;
7128;SDS011;3606;52.930;8.644;2022-10-31T06:00:19;33.87;;;22.13;;
7128;SDS011;3606;52.930;8.644;2022-10-31T06:02:45;34.23;;;22.23;;
7128;SDS011;3606;52.930;8.644;2022-10-31T06:05:11;36.13;;;23.83;;
7128;SDS011;3606;52.930;8.644;2022-10-31T06:07:37;38.90;;;23.73;;
7128;SDS011;3606;52.930;8.644;2022-10-31T06:10:03;36.60;;;23.00;;
7128;SDS011;3606;52.930;8.644;2022-10-31T06:12:31;36.77;;;21.47;;
7128;SDS011;3606;52.930;8.644;2022-10-31T06:14:57;36.03;;;20.67;;
7128;SDS011;3606;52.930;8.644;2022-10-31T06:17:22;32.07;;;21.63;;
7128;SDS011;3606;52.930;8.644;2022-10-31T06:19:48;30.27;;;20.50;;
7128;SDS011;3606;52.930;8.644;2022-10-31T06:22:14;31.70;;;20.50;;
7128;SDS011;3606;52.930;8.644;2022-10-31T06:24:39;32.83;;;21.73;;
7128;SDS011;3606;52.930;8.644;2022-10-31T06:27:05;32.37;;;21.70;;
7128;SDS011;3606;52.930;8.644;2022-10-31T06:29:31;31.37;;;21.77;;
7128;SDS011;3606;52.930;8.644;2022-10-31T06:31:57;29.63;;;21.80;;
7128;SDS011;3606;52.930;8.644;2022-10-31T06:34:22;29.30;;;20.20;;
7128;SDS011;3606;52.930;8.644;2022-10-31T06:36:48;27.87;;;20.67;;
7128;SDS011;3606;52.930;8.644;2022-10-31T06:39:14;26.43;;;20.60;;
7128;SDS011;3606;52.930;8.644;2022-10-31T06:41:40;27.17;;;21.07;;
7128;SDS011;3606;52.930;8.644;2022-10-31T06:44:06;28.00;;;19.17;;
7128;SDS011;3606;52.930;8.644;2022-10-31T06:46:32;29.50;;;20.53;;
7128;SDS011;3606;52.930;8.644;2022-10-31T06:48:58;28.67;;;20.53;;
7128;SDS011;3606;52.930;8.644;2022-10-31T06:51:24;25.30;;;19.67;;
7128;SDS011;3606;52.930;8.644;2022-10-31T06:53:49;24.30;;;19.07;;
7128;SDS011;3606;52.930;8.644;2022-10-31T06:56:15;22.77;;;18.97;;
7128;SDS011;3606;52.930;8.644;2022-10-31T06:58:40;22.17;;;18.07;;
7128;SDS011;3606;52.930;8.644;2022-10-31T07:01:06;25.80;;;18.83;;
7128;SDS011;3606;52.930;8.644;2022-10-31T07:03:32;25.27;;;18.90;;
7128;SDS011;3606;52.930;8.644;2022-10-31T07:05:57;22.37;;;18.03;;
7128;SDS011;3606;52.930;8.644;2022-10-31T07:08:23;23.57;;;17.90;;
7128;SDS011;3606;52.930;8.644;2022-10-31T07:10:55;22.30;;;17.63;;
7128;SDS011;3606;52.930;8.644;2022-10-31T07:13:21;23.13;;;17.60;;
7128;SDS011;3606;52.930;8.644;2022-10-31T07:15:50;23.10;;;18.03;;
7128;SDS011;3606;52.930;8.644;2022-10-31T07:18:23;22.30;;;17.10;;
7128;SDS011;3606;52.930;8.644;2022-10-31T07:20:49;20.67;;;17.33;;
7128;SDS011;3606;52.930;8.644;2022-10-31T07:23:16;21.73;;;16.63;;
7128;SDS011;3606;52.930;8.644;2022-10-31T07:25:41;21.70;;;16.80;;
7128;SDS011;3606;52.930;8.644;2022-10-31T07:28:07;20.13;;;16.27;;
7128;SDS011;3606;52.930;8.644;2022-10-31T07:30:33;20.40;;;15.97;;
7128;SDS011;3606;52.930;8.644;2022-10-31T07:32:59;18.93;;;16.30;;
7128;SDS011;3606;52.930;8.644;2022-10-31T07:35:25;20.50;;;16.77;;
7128;SDS011;3606;52.930;8.644;2022-10-31T07:37:52;21.40;;;17.23;;
7128;SDS011;3606;52.930;8.644;2022-10-31T07:40:18;18.40;;;16.07;;
7128;SDS011;3606;52.930;8.644;2022-10-31T07:42:48;22.47;;;17.73;;
7128;SDS011;3606;52.930;8.644;2022-10-31T07:45:18;25.13;;;19.47;;
7128;SDS011;3606;52.930;8.644;2022-10-31T07:47:46;25.03;;;18.87;;
7128;SDS011;3606;52.930;8.644;2022-10-31T07:50:17;26.53;;;19.93;;
7128;SDS011;3606;52.930;8.644;2022-10-31T07:52:46;25.67;;;19.73;;
7128;SDS011;3606;52.930;8.644;2022-10-31T07:55:12;28.17;;;21.20;;
7128;SDS011;3606;52.930;8.644;2022-10-31T07:57:37;25.57;;;20.73;;
7128;SDS011;3606;52.930;8.644;2022-10-31T08:00:04;29.50;;;21.67;;
7128;SDS011;3606;52.930;8.644;2022-10-31T08:02:31;26.57;;;20.37;;
7128;SDS011;3606;52.930;8.644;2022-10-31T08:04:57;23.07;;;18.87;;
7128;SDS011;3606;52.930;8.644;2022-10-31T08:07:22;21.53;;;16.60;;
7128;SDS011;3606;52.930;8.644;2022-10-31T08:09:48;23.23;;;16.07;;
7128;SDS011;3606;52.930;8.644;2022-10-31T08:12:13;19.97;;;15.97;;
7128;SDS011;3606;52.930;8.644;2022-10-31T08:14:39;18.07;;;16.13;;
7128;SDS011;3606;52.930;8.644;2022-10-31T08:17:04;21.23;;;18.30;;
7128;SDS011;3606;52.930;8.644;2022-10-31T08:19:30;22.43;;;17.90;;
7128;SDS011;3606;52.930;8.644;2022-10-31T08:21:56;22.13;;;17.10;;
7128;SDS011;3606;52.930;8.644;2022-10-31T08:24:21;23.63;;;17.23;;
7128;SDS011;3606;52.930;8.644;2022-10-31T08:26:47;22.10;;;18.60;;
7128;SDS011;3606;52.930;8.644;2022-10-31T08:29:13;21.57;;;16.40;;
7128;SDS011;3606;52.930;8.644;2022-10-31T08:31:39;20.43;;;15.77;;
7128;SDS011;3606;52.930;8.644;2022-10-31T08:34:06;21.27;;;17.80;;
7128;SDS011;3606;52.930;8.644;2022-10-31T08:36:31;18.47;;;16.47;;
7128;SDS011;3606;52.930;8.644;2022-10-31T08:38:57;23.33;;;18.03;;
7128;SDS011;3606;52.930;8.644;2022-10-31T08:41:23;27.20;;;16.73;;
7128;SDS011;3606;52.930;8.644;2022-10-31T08:43:48;22.07;;;17.97;;
7128;SDS011;3606;52.930;8.644;2022-10-31T08:46:14;24.23;;;18.77;;
7128;SDS011;3606;52.930;8.644;2022-10-31T08:48:39;23.17;;;18.27;;
7128;SDS011;3606;52.930;8.644;2022-10-31T08:51:05;18.63;;;14.63;;
7128;SDS011;3606;52.930;8.644;2022-10-31T08:53:31;19.10;;;16.10;;
7128;SDS011;3606;52.930;8.644;2022-10-31T08:55:57;17.03;;;14.60;;
7128;SDS011;3606;52.930;8.644;2022-10-31T08:58:23;15.13;;;13.43;;
7128;SDS011;3606;52.930;8.644;2022-10-31T09:00:50;17.13;;;14.67;;
7128;SDS011;3606;52.930;8.644;2022-10-31T09:03:21;17.53;;;15.17;;
7128;SDS011;3606;52.930;8.644;2022-10-31T09:05:54;20.83;;;16.93;;
7128;SDS011;3606;52.930;8.644;2022-10-31T09:08:20;26.73;;;17.30;;
7128;SDS011;3606;52.930;8.644;2022-10-31T09:10:46;21.53;;;17.03;;
7128;SDS011;3606;52.930;8.644;2022-10-31T09:13:13;26.10;;;17.90;;
7128;SDS011;3606;52.930;8.644;2022-10-31T09:15:40;22.50;;;18.57;;
7128;SDS011;3606;52.930;8.644;2022-10-31T09:18:08;20.97;;;16.57;;
7128;SDS011;3606;52.930;8.644;2022-10-31T09:20:35;20.17;;;16.13;;
7128;SDS011;3606;52.930;8.644;2022-10-31T09:23:05;24.47;;;17.23;;
7128;SDS011;3606;52.930;8.644;2022-10-31T09:25:33;23.57;;;18.70;;
7128;SDS011;3606;52.930;8.644;2022-10-31T09:28:00;22.77;;;17.40;;
7128;SDS011;3606;52.930;8.644;2022-10-31T09:30:29;28.60;;;19.83;;
7128;SDS011;3606;52.930;8.644;2022-10-31T09:33:00;26.40;;;18.37;;
7128;SDS011;3606;52.930;8.644;2022-10-31T09:35:27;24.40;;;18.87;;
7128;SDS011;3606;52.930;8.644;2022-10-31T09:37:54;27.17;;;20.13;;
7128;SDS011;3606;52.930;8.644;2022-10-31T09:40:34;25.20;;;19.07;;
7128;SDS011;3606;52.930;8.644;2022-10-31T09:48:39;24.40;;;18.13;;
7128;SDS011;3606;52.930;8.644;2022-10-31T09:51:23;20.80;;;17.27;;
7128;SDS011;3606;52.930;8.644;2022-10-31T09:54:30;24.00;;;18.47;;
7128;SDS011;3606;52.930;8.644;2022-10-31T09:56:49;22.60;;;17.23;;
7128;SDS011;3606;52.930;8.644;2022-10-31T09:59:24;22.00;;;16.07;;
7128;SDS011;3606;52.930;8.644;2022-10-31T10:02:10;16.03;;;13.80;;
7128;SDS011;3606;52.930;8.644;2022-10-31T10:04:43;16.23;;;13.50;;
7128;SDS011;3606;52.930;8.644;2022-10-31T10:07:17;17.87;;;14.23;;
7128;SDS011;3606;52.930;8.644;2022-10-31T10:09:47;14.27;;;12.37;;
7128;SDS011;3606;52.930;8.644;2022-10-31T10:12:19;16.20;;;12.70;;
7128;SDS011;3606;52.930;8.644;2022-10-31T10:17:57;14.33;;;12.00;;
7128;SDS011;3606;52.930;8.644;2022-10-31T10:20:44;16.47;;;12.77;;
7128;SDS011;3606;52.930;8.644;2022-10-31T10:26:20;18.43;;;14.20;;
7128;SDS011;3606;52.930;8.644;2022-10-31T10:28:48;19.37;;;14.10;;
7128;SDS011;3606;52.930;8.644;2022-10-31T10:31:29;18.37;;;13.83;;
7128;SDS011;3606;52.930;8.644;2022-10-31T10:36:38;19.97;;;13.90;;
7128;SDS011;3606;52.930;8.644;2022-10-31T10:39:22;19.13;;;13.73;;
7128;SDS011;3606;52.930;8.644;2022-10-31T10:41:52;16.87;;;12.10;;
7128;SDS011;3606;52.930;8.644;2022-10-31T10:44:47;19.80;;;13.03;;
7128;SDS011;3606;52.930;8.644;2022-10-31T10:47:36;20.38;;;12.95;;
7128;SDS011;3606;52.930;8.644;2022-10-31T10:50:19;15.95;;;12.23;;
7128;SDS011;3606;52.930;8.644;2022-10-31T10:52:53;16.33;;;12.63;;
7128;SDS011;3606;52.930;8.644;2022-10-31T10:58:04;18.45;;;13.20;;
7128;SDS011;3606;52.930;8.644;2022-10-31T11:00:37;17.95;;;13.80;;
7128;SDS011;3606;52.930;8.644;2022-10-31T11:03:07;18.80;;;12.88;;
7128;SDS011;3606;52.930;8.644;2022-10-31T11:05:47;18.00;;;12.80;;
7128;SDS011;3606;52.930;8.644;2022-10-31T11:08:26;17.05;;;12.55;;
7128;SDS011;3606;52.930;8.644;2022-10-31T11:10:59;17.95;;;12.82;;
7128;SDS011;3606;52.930;8.644;2022-10-31T11:13:41;16.65;;;12.75;;
7128;SDS011;3606;52.930;8.644;2022-10-31T11:16:11;20.05;;;14.05;;
7128;SDS011;3606;52.930;8.644;2022-10-31T11:18:52;22.10;;;13.48;;
7128;SDS011;3606;52.930;8.644;2022-10-31T11:21:28;24.50;;;13.50;;
7128;SDS011;3606;52.930;8.644;2022-10-31T11:26:39;22.53;;;13.60;;
7128;SDS011;3606;52.930;8.644;2022-10-31T11:31:47;22.57;;;13.83;;
7128;SDS011;3606;52.930;8.644;2022-10-31T11:36:47;19.60;;;14.47;;
7128;SDS011;3606;52.930;8.644;2022-10-31T11:39:15;21.60;;;14.70;;
7128;SDS011;3606;52.930;8.644;2022-10-31T11:41:44;24.60;;;14.43;;
7128;SDS011;3606;52.930;8.644;2022-10-31T11:51:56;19.90;;;13.77;;
7128;SDS011;3606;52.930;8.644;2022-10-31T11:54:29;26.63;;;14.57;;
7128;SDS011;3606;52.930;8.644;2022-10-31T11:56:58;18.90;;;12.70;;
7128;SDS011;3606;52.930;8.644;2022-10-31T11:59:28;20.67;;;12.40;;
7128;SDS011;3606;52.930;8.644;2022-10-31T12:01:56;22.77;;;12.13;;
7128;SDS011;3606;52.930;8.644;2022-10-31T12:04:27;17.30;;;10.93;;
7128;SDS011;3606;52.930;8.644;2022-10-31T12:06:57;16.40;;;10.70;;
7128;SDS011;3606;52.930;8.644;2022-10-31T12:09:23;15.60;;;10.90;;
7128;SDS011;3606;52.930;8.644;2022-10-31T12:11:58;16.67;;;10.93;;
7128;SDS011;3606;52.930;8.644;2022-10-31T12:14:36;16.60;;;9.93;;
7128;SDS011;3606;52.930;8.644;2022-10-31T12:17:22;15.50;;;9.87;;
7128;SDS011;3606;52.930;8.644;2022-10-31T12:37:29;11.57;;;8.23;;
7128;SDS011;3606;52.930;8.644;2022-10-31T12:40:20;10.77;;;8.17;;
7128;SDS011;3606;52.930;8.644;2022-10-31T12:42:52;12.30;;;7.70;;
7128;SDS011;3606;52.930;8.644;2022-10-31T12:45:28;17.63;;;7.67;;
7128;SDS011;3606;52.930;8.644;2022-10-31T12:48:06;12.30;;;8.00;;
7128;SDS011;3606;52.930;8.644;2022-10-31T12:59:20;10.67;;;7.90;;
7128;SDS011;3606;52.930;8.644;2022-10-31T13:07:18;16.70;;;7.80;;
7128;SDS011;3606;52.930;8.644;2022-10-31T13:12:23;12.33;;;7.57;;
7128;SDS011;3606;52.930;8.644;2022-10-31T13:14:52;12.10;;;9.37;;
7128;SDS011;3606;52.930;8.644;2022-10-31T13:17:23;17.70;;;10.23;;
7128;SDS011;3606;52.930;8.644;2022-10-31T13:22:49;19.53;;;11.73;;
7128;SDS011;3606;52.930;8.644;2022-10-31T13:25:32;17.40;;;10.60;;
7128;SDS011;3606;52.930;8.644;2022-10-31T13:28:03;16.10;;;11.73;;
7128;SDS011;3606;52.930;8.644;2022-10-31T13:30:37;17.70;;;11.00;;
7128;SDS011;3606;52.930;8.644;2022-10-31T13:33:19;22.27;;;13.57;;
7128;SDS011;3606;52.930;8.644;2022-10-31T13:41:53;21.43;;;14.27;;
7128;SDS011;3606;52.930;8.644;2022-10-31T13:44:39;21.50;;;14.07;;
7128;SDS011;3606;52.930;8.644;2022-10-31T13:47:24;21.37;;;14.87;;
7128;SDS011;3606;52.930;8.644;2022-10-31T13:50:05;28.43;;;16.60;;
7128;SDS011;3606;52.930;8.644;2022-10-31T13:52:43;31.27;;;16.93;;
7128;SDS011;3606;52.930;8.644;2022-10-31T13:55:33;24.53;;;16.73;;
7128;SDS011;3606;52.930;8.644;2022-10-31T14:03:35;21.77;;;15.97;;
7128;SDS011;3606;52.930;8.644;2022-10-31T14:06:02;24.67;;;18.13;;
7128;SDS011;3606;52.930;8.644;2022-10-31T14:08:29;29.13;;;18.77;;
7128;SDS011;3606;52.930;8.644;2022-10-31T14:10:59;30.27;;;19.13;;
7128;SDS011;3606;52.930;8.644;2022-10-31T14:16:27;31.83;;;18.60;;
7128;SDS011;3606;52.930;8.644;2022-10-31T14:18:57;30.30;;;20.53;;
7128;SDS011;3606;52.930;8.644;2022-10-31T14:23:49;33.20;;;20.43;;
7128;SDS011;3606;52.930;8.644;2022-10-31T14:28:48;33.60;;;22.30;;
7128;SDS011;3606;52.930;8.644;2022-10-31T14:45:18;30.90;;;20.83;;
7128;SDS011;3606;52.930;8.644;2022-10-31T14:50:50;32.20;;;21.73;;
7128;SDS011;3606;52.930;8.644;2022-10-31T14:53:22;36.63;;;22.97;;
7128;SDS011;3606;52.930;8.644;2022-10-31T14:55:54;33.23;;;22.60;;
7128;SDS011;3606;52.930;8.644;2022-10-31T14:58:26;32.03;;;21.90;;
7128;SDS011;3606;52.930;8.644;2022-10-31T15:01:05;36.80;;;22.57;;
7128;SDS011;3606;52.930;8.644;2022-10-31T15:03:36;43.33;;;24.57;;
7128;SDS011;3606;52.930;8.644;2022-10-31T15:06:09;32.23;;;22.77;;
7128;SDS011;3606;52.930;8.644;2022-10-31T15:08:45;35.63;;;24.10;;
7128;SDS011;3606;52.930;8.644;2022-10-31T15:11:22;38.07;;;23.73;;
7128;SDS011;3606;52.930;8.644;2022-10-31T15:13:56;43.73;;;27.60;;
7128;SDS011;3606;52.930;8.644;2022-10-31T15:16:33;43.50;;;26.60;;
7128;SDS011;3606;52.930;8.644;2022-10-31T15:19:04;39.57;;;25.90;;
7128;SDS011;3606;52.930;8.644;2022-10-31T15:21:32;36.63;;;22.50;;
7128;SDS011;3606;52.930;8.644;2022-10-31T15:23:59;37.70;;;23.47;;
7128;SDS011;3606;52.930;8.644;2022-10-31T15:26:27;32.30;;;21.80;;
7128;SDS011;3606;52.930;8.644;2022-10-31T15:28:58;31.80;;;22.60;;
7128;SDS011;3606;52.930;8.644;2022-10-31T15:31:28;33.10;;;22.07;;
7128;SDS011;3606;52.930;8.644;2022-10-31T15:33:55;42.93;;;24.63;;
7128;SDS011;3606;52.930;8.644;2022-10-31T15:36:26;40.83;;;23.83;;
7128;SDS011;3606;52.930;8.644;2022-10-31T15:38:52;40.90;;;23.07;;
7128;SDS011;3606;52.930;8.644;2022-10-31T15:44:11;37.57;;;24.10;;
7128;SDS011;3606;52.930;8.644;2022-10-31T15:46:41;40.63;;;25.30;;
7128;SDS011;3606;52.930;8.644;2022-10-31T15:49:50;42.03;;;24.73;;
7128;SDS011;3606;52.930;8.644;2022-10-31T15:52:51;43.57;;;26.67;;
7128;SDS011;3606;52.930;8.644;2022-10-31T15:55:05;41.77;;;25.07;;
7128;SDS011;3606;52.930;8.644;2022-10-31T15:57:39;46.37;;;27.20;;
7128;SDS011;3606;52.930;8.644;2022-10-31T16:00:20;46.60;;;26.87;;
7128;SDS011;3606;52.930;8.644;2022-10-31T16:05:50;48.87;;;28.60;;
7128;SDS011;3606;52.930;8.644;2022-10-31T16:13:26;50.50;;;28.60;;
7128;SDS011;3606;52.930;8.644;2022-10-31T16:15:55;50.63;;;28.57;;
7128;SDS011;3606;52.930;8.644;2022-10-31T16:18:25;53.03;;;27.37;;
7128;SDS011;3606;52.930;8.644;2022-10-31T16:20:53;49.67;;;26.73;;
7128;SDS011;3606;52.930;8.644;2022-10-31T16:23:20;47.93;;;27.10;;
7128;SDS011;3606;52.930;8.644;2022-10-31T16:25:47;52.07;;;27.20;;
7128;SDS011;3606;52.930;8.644;2022-10-31T16:28:20;46.03;;;27.07;;
7128;SDS011;3606;52.930;8.644;2022-10-31T16:30:49;54.77;;;26.17;;
7128;SDS011;3606;52.930;8.644;2022-10-31T16:33:25;41.90;;;25.03;;
7128;SDS011;3606;52.930;8.644;2022-10-31T16:35:51;50.87;;;25.73;;
7128;SDS011;3606;52.930;8.644;2022-10-31T16:38:17;44.10;;;24.90;;
7128;SDS011;3606;52.930;8.644;2022-10-31T16:40:43;48.97;;;24.80;;
7128;SDS011;3606;52.930;8.644;2022-10-31T16:43:13;51.13;;;25.80;;
7128;SDS011;3606;52.930;8.644;2022-10-31T16:45:44;53.53;;;26.00;;
7128;SDS011;3606;52.930;8.644;2022-10-31T16:48:12;47.13;;;25.60;;
7128;SDS011;3606;52.930;8.644;2022-10-31T16:50:40;44.87;;;24.07;;
7128;SDS011;3606;52.930;8.644;2022-10-31T16:53:07;43.50;;;23.80;;
7128;SDS011;3606;52.930;8.644;2022-10-31T16:55:34;49.27;;;24.03;;
7128;SDS011;3606;52.930;8.644;2022-10-31T16:58:05;44.50;;;23.17;;
7128;SDS011;3606;52.930;8.644;2022-10-31T17:00:39;38.80;;;22.20;;
7128;SDS011;3606;52.930;8.644;2022-10-31T17:03:04;44.63;;;24.17;;
7128;SDS011;3606;52.930;8.644;2022-10-31T17:05:30;47.07;;;22.93;;
7128;SDS011;3606;52.930;8.644;2022-10-31T17:07:56;42.70;;;22.00;;
7128;SDS011;3606;52.930;8.644;2022-10-31T17:10:22;42.47;;;22.53;;
7128;SDS011;3606;52.930;8.644;2022-10-31T17:12:49;43.07;;;22.47;;
7128;SDS011;3606;52.930;8.644;2022-10-31T17:15:16;41.97;;;22.80;;
7128;SDS011;3606;52.930;8.644;2022-10-31T17:17:45;58.37;;;29.67;;
7128;SDS011;3606;52.930;8.644;2022-10-31T17:22:50;37.63;;;21.20;;
7128;SDS011;3606;52.930;8.644;2022-10-31T17:25:17;41.50;;;21.03;;
7128;SDS011;3606;52.930;8.644;2022-10-31T17:27:45;36.27;;;19.57;;